createdAt,value
2023-03-18T00:00:47.778Z,1.10
2023-03-18T00:03:15.893Z,1.10
2023-03-18T00:05:43.707Z,1.20
2023-03-18T00:08:12.310Z,1.10
2023-03-18T00:10:41.871Z,0.90
2023-03-18T00:13:10.594Z,1.10
2023-03-18T00:15:38.310Z,1.20
2023-03-18T00:18:06.671Z,1.00
2023-03-18T00:20:40.344Z,0.90
2023-03-18T00:23:09.206Z,0.80
2023-03-18T00:25:37.983Z,0.80
2023-03-18T00:28:07.180Z,0.80
2023-03-18T00:30:39.442Z,0.80
2023-03-18T00:33:09.647Z,1.00
2023-03-18T00:35:39.964Z,1.10
2023-03-18T00:38:09.135Z,1.10
2023-03-18T00:41:01.748Z,0.90
2023-03-18T00:43:33.991Z,1.00
2023-03-18T00:46:05.590Z,1.10
2023-03-18T00:48:33.367Z,0.90
2023-03-18T00:51:01.384Z,0.80
2023-03-18T00:53:29.143Z,1.00
2023-03-18T00:55:57.102Z,0.80
2023-03-18T00:58:25.817Z,0.50
2023-03-18T01:00:53.457Z,0.70
2023-03-18T01:03:21.207Z,0.80
2023-03-18T01:05:51.281Z,0.90
2023-03-18T01:08:19.554Z,1.00
2023-03-18T01:10:48.431Z,0.90
2023-03-18T01:13:16.481Z,1.00
2023-03-18T01:15:44.133Z,1.00
2023-03-18T01:18:12.139Z,1.00
2023-03-18T01:20:39.836Z,0.90
2023-03-18T01:23:08.965Z,1.00
2023-03-18T01:25:37.628Z,1.00
2023-03-18T01:28:06.285Z,1.00
2023-03-18T01:30:40.506Z,1.00
2023-03-18T01:33:08.994Z,0.90
2023-03-18T01:35:38.230Z,0.80
2023-03-18T01:38:06.345Z,0.90
2023-03-18T01:40:37.536Z,1.00
2023-03-18T01:43:21.188Z,1.00
2023-03-18T01:45:51.379Z,1.00
2023-03-18T01:48:21.645Z,0.90
2023-03-18T01:50:59.395Z,0.80
2023-03-18T01:53:36.233Z,0.80
2023-03-18T01:56:05.333Z,0.90
2023-03-18T01:58:49.528Z,0.60
2023-03-18T02:01:32.273Z,0.50
2023-03-18T02:04:07.891Z,0.40
2023-03-18T02:06:35.677Z,0.30
2023-03-18T02:09:04.212Z,0.50
2023-03-18T02:11:35.751Z,0.50
2023-03-18T02:14:04.326Z,0.70
2023-03-18T02:16:53.888Z,0.60
2023-03-18T02:19:39.910Z,0.50
2023-03-18T02:22:33.351Z,0.50
2023-03-18T02:25:32.112Z,0.60
2023-03-18T02:28:03.898Z,0.50
2023-03-18T02:30:50.878Z,0.50
2023-03-18T02:33:22.945Z,0.60
2023-03-18T02:36:02.106Z,0.10
2023-03-18T02:38:32.376Z,0.20
2023-03-18T02:41:01.915Z,0.40
2023-03-18T02:43:40.709Z,0.40
2023-03-18T02:46:15.167Z,0.50
2023-03-18T02:48:45.290Z,0.50
2023-03-18T02:51:16.348Z,0.50
2023-03-18T02:53:46.306Z,0.50
2023-03-18T02:56:14.606Z,0.30
2023-03-18T02:58:43.755Z,0.40
2023-03-18T03:01:13.261Z,0.40
2023-03-18T03:03:41.636Z,0.40
2023-03-18T03:06:12.011Z,0.40
2023-03-18T03:08:40.718Z,0.40
2023-03-18T03:11:10.290Z,0.40
2023-03-18T03:13:41.076Z,0.30
2023-03-18T03:16:14.239Z,0.10
2023-03-18T03:18:42.523Z,0.00
2023-03-18T03:21:13.006Z,-0.20
2023-03-18T03:23:41.668Z,0.00
2023-03-18T03:26:10.237Z,0.10
2023-03-18T03:28:38.070Z,0.10
2023-03-18T03:31:07.117Z,0.20
2023-03-18T03:33:41.317Z,0.00
2023-03-18T03:36:14.556Z,0.00
2023-03-18T03:38:43.797Z,-0.10
2023-03-18T03:41:13.089Z,0.10
2023-03-18T03:43:41.447Z,0.10
2023-03-18T03:46:09.867Z,0.10
2023-03-18T03:48:40.158Z,0.00
2023-03-18T03:51:12.697Z,0.10
2023-03-18T03:53:41.154Z,0.10
2023-03-18T03:56:09.338Z,-0.20
2023-03-18T03:58:37.290Z,0.10
2023-03-18T04:01:06.677Z,0.00
2023-03-18T04:03:34.895Z,0.00
2023-03-18T04:06:06.880Z,-0.10
2023-03-18T04:08:37.425Z,0.00
2023-03-18T04:11:05.634Z,-0.20
2023-03-18T04:13:34.042Z,0.00
2023-03-18T04:16:01.888Z,0.10
2023-03-18T04:18:31.902Z,0.00
2023-03-18T04:21:00.262Z,-0.20
2023-03-18T04:23:41.924Z,-0.10
2023-03-18T04:26:09.617Z,-0.10
2023-03-18T04:28:38.392Z,-0.10
2023-03-18T04:31:08.928Z,0.00
2023-03-18T04:33:36.604Z,-0.10
2023-03-18T04:36:04.604Z,0.00
2023-03-18T04:38:34.383Z,-0.10
2023-03-18T04:41:02.192Z,-0.10
2023-03-18T04:43:30.001Z,-0.40
2023-03-18T04:45:58.088Z,-0.30
2023-03-18T04:48:27.232Z,-0.50
2023-03-18T04:50:57.539Z,-0.60
2023-03-18T04:53:29.286Z,-0.50
2023-03-18T04:55:58.213Z,-0.10
2023-03-18T04:58:33.703Z,0.00
2023-03-18T05:01:15.861Z,0.00
2023-03-18T05:03:45.006Z,0.10
2023-03-18T05:06:23.284Z,0.00
2023-03-18T05:08:57.352Z,-0.20
2023-03-18T05:11:28.345Z,-0.10
2023-03-18T05:14:01.127Z,-0.30
2023-03-18T05:16:40.358Z,-0.30
2023-03-18T05:19:09.711Z,-0.10
2023-03-18T05:21:42.436Z,-0.20
2023-03-18T05:24:10.845Z,0.00
2023-03-18T05:26:41.677Z,0.30
2023-03-18T05:29:10.648Z,0.20
2023-03-18T05:31:58.783Z,0.40
2023-03-18T05:34:27.632Z,0.50
2023-03-18T05:36:57.812Z,0.50
2023-03-18T05:39:26.410Z,0.60
2023-03-18T05:41:54.249Z,0.70
2023-03-18T05:44:27.150Z,0.70
2023-03-18T05:46:57.841Z,1.00
2023-03-18T05:49:45.893Z,1.20
2023-03-18T05:52:24.916Z,1.40
2023-03-18T05:54:56.958Z,1.40
2023-03-18T05:57:31.345Z,1.50
2023-03-18T06:00:03.196Z,1.50
2023-03-18T06:02:43.807Z,1.60
2023-03-18T06:05:14.461Z,1.90
2023-03-18T06:07:42.118Z,1.90
2023-03-18T06:10:10.946Z,2.00
2023-03-18T06:12:39.458Z,2.50
2023-03-18T06:15:08.172Z,2.50
2023-03-18T06:17:36.242Z,2.80
2023-03-18T06:20:06.212Z,2.90
2023-03-18T06:22:34.265Z,3.20
2023-03-18T06:25:02.819Z,3.20
2023-03-18T06:27:31.403Z,3.50
2023-03-18T06:30:03.101Z,3.70
2023-03-18T06:32:32.064Z,3.80
2023-03-18T06:35:00.557Z,4.10
2023-03-18T06:37:30.874Z,4.10
2023-03-18T06:39:58.840Z,4.40
2023-03-18T06:42:26.867Z,4.50
2023-03-18T06:45:15.384Z,4.70
2023-03-18T06:47:51.830Z,4.90
2023-03-18T06:50:20.736Z,4.90
2023-03-18T06:52:49.505Z,5.00
2023-03-18T06:55:21.966Z,5.00
2023-03-18T06:57:49.869Z,5.10
2023-03-18T07:00:23.103Z,5.20
2023-03-18T07:02:51.681Z,5.10
2023-03-18T07:05:24.413Z,5.10
2023-03-18T07:07:52.249Z,5.30
2023-03-18T07:10:23.415Z,5.50
2023-03-18T07:12:54.052Z,5.50
2023-03-18T07:15:23.682Z,5.40
2023-03-18T07:17:55.021Z,5.50
2023-03-18T07:20:23.894Z,5.70
2023-03-18T07:22:51.832Z,5.70
2023-03-18T07:25:21.750Z,5.80
2023-03-18T07:27:51.225Z,6.10
2023-03-18T07:30:20.434Z,6.20
2023-03-18T07:32:48.105Z,6.40
2023-03-18T07:35:16.204Z,6.50
2023-03-18T07:37:43.913Z,6.70
2023-03-18T07:40:13.120Z,6.70
2023-03-18T07:42:41.148Z,6.60
2023-03-18T07:45:09.598Z,6.70
2023-03-18T07:47:37.816Z,6.90
2023-03-18T07:50:06.038Z,6.90
2023-03-18T07:52:34.088Z,6.90
2023-03-18T07:55:02.061Z,7.10
2023-03-18T07:57:30.143Z,6.90
2023-03-18T07:59:58.189Z,7.10
2023-03-18T08:02:27.704Z,7.20
2023-03-18T08:04:55.507Z,7.20
2023-03-18T08:07:24.620Z,7.20
2023-03-18T08:09:52.569Z,7.30
2023-03-18T08:12:21.415Z,7.30
2023-03-18T08:14:50.100Z,7.20
2023-03-18T08:17:18.009Z,7.50
2023-03-18T08:19:45.654Z,7.40
2023-03-18T08:22:14.330Z,7.80
2023-03-18T08:24:45.162Z,7.90
2023-03-18T08:27:13.344Z,8.10
2023-03-18T08:29:41.288Z,8.00
2023-03-18T08:32:10.026Z,8.40
2023-03-18T08:34:37.704Z,8.40
2023-03-18T08:37:06.315Z,8.70
2023-03-18T08:39:34.024Z,8.60
2023-03-18T08:42:04.699Z,8.50
2023-03-18T08:44:32.957Z,8.80
2023-03-18T08:47:01.439Z,8.90
2023-03-18T08:49:29.677Z,9.00
2023-03-18T08:51:57.579Z,9.10
2023-03-18T08:54:25.432Z,9.00
2023-03-18T08:56:55.312Z,9.00
2023-03-18T08:59:23.602Z,9.00
2023-03-18T09:01:51.686Z,8.90
2023-03-18T09:04:20.358Z,9.10
2023-03-18T09:06:49.054Z,9.00
2023-03-18T09:09:16.977Z,8.80
2023-03-18T09:11:46.547Z,9.00
2023-03-18T09:14:14.843Z,9.20
2023-03-18T09:16:44.033Z,9.50
2023-03-18T09:19:12.372Z,9.40
2023-03-18T09:21:40.070Z,9.50
2023-03-18T09:24:07.956Z,9.50
2023-03-18T09:26:35.742Z,9.40
2023-03-18T09:29:03.552Z,9.60
2023-03-18T09:31:31.914Z,9.80
2023-03-18T09:34:00.120Z,10.10
2023-03-18T09:36:28.941Z,10.10
2023-03-18T09:38:56.705Z,9.70
2023-03-18T09:41:49.364Z,9.80
2023-03-18T09:44:31.877Z,9.80
2023-03-18T09:47:38.598Z,9.90
2023-03-18T09:50:21.734Z,10.00
2023-03-18T09:53:04.571Z,10.20
2023-03-18T09:55:33.499Z,10.20
2023-03-18T09:58:03.681Z,10.10
2023-03-18T10:00:37.995Z,10.10
2023-03-18T10:03:31.180Z,10.20
2023-03-18T10:06:13.989Z,10.30
2023-03-18T10:08:59.803Z,10.30
2023-03-18T10:11:46.465Z,10.30
2023-03-18T10:14:36.160Z,10.60
2023-03-18T10:17:14.994Z,10.80
2023-03-18T10:19:48.673Z,10.50
2023-03-18T10:22:16.333Z,10.70
2023-03-18T10:25:21.178Z,10.50
2023-03-18T10:28:34.732Z,10.50
2023-03-18T10:31:21.494Z,10.80
2023-03-18T10:33:58.569Z,10.60
2023-03-18T10:36:45.830Z,10.60
2023-03-18T10:39:16.577Z,10.80
2023-03-18T10:41:50.230Z,10.80
2023-03-18T10:44:29.579Z,11.00
2023-03-18T10:47:13.540Z,10.70
2023-03-18T10:49:47.912Z,11.30
2023-03-18T10:52:24.896Z,11.00
2023-03-18T10:54:53.372Z,10.80
2023-03-18T10:57:22.279Z,10.80
2023-03-18T10:59:51.478Z,10.90
2023-03-18T11:02:33.429Z,11.10
2023-03-18T11:05:27.012Z,11.10
2023-03-18T11:08:05.031Z,11.00
2023-03-18T11:10:40.659Z,11.20
2023-03-18T11:13:16.415Z,11.50
2023-03-18T11:15:52.674Z,11.10
2023-03-18T11:18:26.897Z,11.20
2023-03-18T11:21:01.208Z,11.40
2023-03-18T11:23:48.863Z,11.40
2023-03-18T11:26:24.822Z,11.50
2023-03-18T11:28:58.931Z,11.50
2023-03-18T11:31:28.176Z,11.70
2023-03-18T11:33:59.787Z,11.70
2023-03-18T11:36:28.492Z,11.40
2023-03-18T11:38:59.807Z,11.40
2023-03-18T11:41:30.295Z,11.60
2023-03-18T11:44:07.469Z,11.50
2023-03-18T11:46:38.810Z,11.60
2023-03-18T11:49:09.693Z,11.70
2023-03-18T11:51:53.924Z,11.70
2023-03-18T11:54:28.063Z,11.80
2023-03-18T11:57:01.649Z,11.80
2023-03-18T11:59:32.889Z,11.80
2023-03-18T12:02:12.744Z,11.90
2023-03-18T12:05:05.663Z,11.80
2023-03-18T12:07:52.439Z,11.90
2023-03-18T12:10:34.614Z,11.90
2023-03-18T12:13:28.064Z,11.70
2023-03-18T12:16:23.971Z,12.10
2023-03-18T12:19:00.801Z,11.90
2023-03-18T12:21:47.737Z,11.70
2023-03-18T12:24:28.034Z,11.90
2023-03-18T12:27:27.815Z,11.50
2023-03-18T12:30:01.258Z,11.30
2023-03-18T12:32:42.046Z,11.60
2023-03-18T12:35:29.386Z,11.70
2023-03-18T12:38:18.515Z,11.50
2023-03-18T12:41:25.734Z,11.40
2023-03-18T12:43:59.580Z,11.40
2023-03-18T12:46:56.564Z,11.50
2023-03-18T12:49:35.076Z,11.50
2023-03-18T12:52:30.235Z,11.50
2023-03-18T12:55:04.236Z,11.40
2023-03-18T12:57:37.985Z,11.30
2023-03-18T13:00:18.770Z,11.30
2023-03-18T13:03:11.986Z,11.20
2023-03-18T13:05:47.015Z,11.40
2023-03-18T13:08:23.990Z,11.50
2023-03-18T13:11:04.110Z,11.70
2023-03-18T13:13:35.668Z,11.80
2023-03-18T13:16:04.868Z,11.50
2023-03-18T13:18:53.627Z,11.50
2023-03-18T13:21:25.377Z,11.40
2023-03-18T13:24:18.353Z,11.30
2023-03-18T13:26:49.643Z,11.50
2023-03-18T13:29:35.238Z,11.60
2023-03-18T13:32:28.422Z,11.70
2023-03-18T13:35:04.974Z,11.80
2023-03-18T13:37:43.364Z,11.60
2023-03-18T13:40:46.515Z,11.40
2023-03-18T13:43:21.550Z,11.50
2023-03-18T13:45:54.027Z,11.40
2023-03-18T13:48:28.036Z,11.30
2023-03-18T13:50:59.026Z,11.30
2023-03-18T13:53:29.717Z,11.40
2023-03-18T13:56:00.110Z,11.40
2023-03-18T13:58:30.532Z,11.70
2023-03-18T14:01:01.230Z,11.50
2023-03-18T14:03:44.499Z,11.50
2023-03-18T14:06:37.048Z,11.60
2023-03-18T14:09:35.434Z,11.60
2023-03-18T14:12:38.386Z,11.70
2023-03-18T14:15:36.132Z,11.90
2023-03-18T14:18:04.581Z,12.00
2023-03-18T14:20:39.615Z,11.90
2023-03-18T14:23:26.045Z,12.00
2023-03-18T14:26:23.449Z,12.00
2023-03-18T14:29:17.244Z,11.90
2023-03-18T14:31:52.089Z,11.70
2023-03-18T14:34:19.664Z,11.90
2023-03-18T14:36:54.099Z,11.90
2023-03-18T14:39:28.961Z,11.70
2023-03-18T14:42:02.132Z,11.90
2023-03-18T14:45:01.948Z,12.00
2023-03-18T14:48:05.336Z,11.80
2023-03-18T14:50:57.455Z,11.70
2023-03-18T14:53:46.884Z,11.90
2023-03-18T14:56:31.347Z,11.70
2023-03-18T14:58:58.946Z,11.70
2023-03-18T15:01:38.102Z,11.70
2023-03-18T15:04:11.328Z,11.60
2023-03-18T15:06:40.366Z,11.40
2023-03-18T15:09:13.563Z,11.40
2023-03-18T15:11:45.654Z,11.50
2023-03-18T15:14:18.340Z,11.40
2023-03-18T15:16:56.948Z,11.40
2023-03-18T15:19:27.031Z,11.30
2023-03-18T15:22:04.517Z,11.40
2023-03-18T15:24:32.620Z,11.30
2023-03-18T15:27:19.746Z,11.30
2023-03-18T15:29:58.583Z,11.40
2023-03-18T15:32:28.405Z,11.30
2023-03-18T15:35:16.822Z,11.30
2023-03-18T15:37:46.997Z,11.20
2023-03-18T15:40:23.685Z,11.20
2023-03-18T15:42:54.213Z,11.10
2023-03-18T15:45:25.479Z,11.10
2023-03-18T15:47:53.480Z,11.00
2023-03-18T15:50:26.422Z,11.00
2023-03-18T15:53:23.341Z,10.90
2023-03-18T15:55:54.044Z,10.80
2023-03-18T15:58:28.094Z,10.70
2023-03-18T16:00:57.392Z,10.70
2023-03-18T16:03:31.895Z,10.70
2023-03-18T16:05:59.585Z,10.50
2023-03-18T16:08:27.786Z,10.40
2023-03-18T16:10:58.312Z,10.30
2023-03-18T16:13:29.612Z,10.20
2023-03-18T16:15:57.531Z,10.20
2023-03-18T16:18:25.653Z,10.10
2023-03-18T16:20:54.294Z,10.10
2023-03-18T16:23:22.517Z,10.10
2023-03-18T16:25:53.488Z,9.90
2023-03-18T16:28:25.051Z,9.90
2023-03-18T16:30:55.788Z,9.90
2023-03-18T16:33:24.442Z,9.90
2023-03-18T16:36:04.335Z,9.80
2023-03-18T16:38:34.566Z,9.70
2023-03-18T16:41:03.325Z,9.60
2023-03-18T16:43:32.390Z,9.40
2023-03-18T16:46:04.207Z,9.20
2023-03-18T16:48:32.302Z,9.00
2023-03-18T16:51:02.541Z,8.60
2023-03-18T16:53:31.756Z,8.50
2023-03-18T16:56:03.340Z,8.40
2023-03-18T16:58:35.445Z,8.60
2023-03-18T17:01:07.661Z,8.50
2023-03-18T17:03:36.938Z,8.40
2023-03-18T17:06:06.660Z,8.30
2023-03-18T17:08:37.008Z,8.10
2023-03-18T17:11:05.481Z,8.00
2023-03-18T17:13:35.396Z,7.90
2023-03-18T17:16:03.522Z,7.80
2023-03-18T17:18:31.837Z,7.70
2023-03-18T17:20:59.839Z,7.60
2023-03-18T17:26:15.169Z,7.50
2023-03-18T17:28:45.802Z,7.50
2023-03-18T17:31:14.680Z,7.40
2023-03-18T17:33:43.277Z,7.30
2023-03-18T17:36:11.267Z,7.30
2023-03-18T17:38:39.565Z,7.10
2023-03-18T17:41:21.875Z,7.10
2023-03-18T17:43:51.581Z,7.00
2023-03-18T17:46:19.624Z,6.90
2023-03-18T17:48:50.794Z,6.80
2023-03-18T17:51:23.768Z,6.90
2023-03-18T17:53:59.559Z,6.80
2023-03-18T17:56:28.733Z,6.80
2023-03-18T17:58:59.752Z,6.70
2023-03-18T18:01:31.038Z,6.70
2023-03-18T18:04:01.881Z,6.50
2023-03-18T18:06:31.596Z,6.50
2023-03-18T18:09:01.369Z,6.50
2023-03-18T18:11:44.241Z,6.50
2023-03-18T18:14:20.618Z,6.20
2023-03-18T18:16:50.539Z,6.20
2023-03-18T18:19:19.815Z,6.20
2023-03-18T18:21:49.758Z,6.10
2023-03-18T18:24:24.923Z,6.10
2023-03-18T18:26:53.604Z,6.00
2023-03-18T18:29:24.688Z,6.10
2023-03-18T18:31:53.243Z,5.90
2023-03-18T18:34:22.208Z,5.90
2023-03-18T18:36:51.609Z,5.90
2023-03-18T18:39:21.430Z,5.80
2023-03-18T18:41:50.293Z,5.80
2023-03-18T18:44:19.561Z,5.80
2023-03-18T18:46:47.967Z,5.80
2023-03-18T18:49:25.119Z,5.70
2023-03-18T18:51:56.062Z,5.80
2023-03-18T18:54:25.975Z,5.80
2023-03-18T18:56:55.015Z,5.70
2023-03-18T18:59:36.432Z,5.60
2023-03-18T19:02:30.101Z,5.50
2023-03-18T19:05:00.201Z,5.50
2023-03-18T19:07:30.062Z,5.40
2023-03-18T19:09:59.825Z,5.40
2023-03-18T19:12:29.761Z,5.40
2023-03-18T19:14:59.521Z,5.30
2023-03-18T19:17:28.974Z,5.30
2023-03-18T19:20:05.184Z,5.30
2023-03-18T19:22:34.597Z,5.30
2023-03-18T19:25:06.310Z,5.30
2023-03-18T19:27:35.716Z,5.30
2023-03-18T19:30:14.465Z,5.10
2023-03-18T19:32:43.942Z,5.10
2023-03-18T19:35:14.482Z,5.20
2023-03-18T19:37:46.692Z,5.10
2023-03-18T19:40:32.536Z,5.00
2023-03-18T19:43:01.302Z,5.00
2023-03-18T19:45:30.587Z,5.00
2023-03-18T19:47:58.978Z,5.00
2023-03-18T19:50:33.410Z,5.00
2023-03-18T19:53:03.329Z,4.90
2023-03-18T19:55:32.384Z,4.90
2023-03-18T19:58:00.979Z,5.00
2023-03-18T20:00:31.244Z,4.80
2023-03-18T20:03:03.768Z,4.80
2023-03-18T20:05:32.786Z,4.80
2023-03-18T20:08:01.402Z,4.80
2023-03-18T20:10:30.679Z,4.60
2023-03-18T20:12:59.659Z,4.60
2023-03-18T20:15:30.509Z,4.60
2023-03-18T20:18:00.878Z,4.60
2023-03-18T20:20:33.844Z,4.50
2023-03-18T20:23:06.498Z,4.30
2023-03-18T20:25:43.015Z,4.50
2023-03-18T20:28:19.879Z,4.50
2023-03-18T20:30:53.135Z,4.50
2023-03-18T20:33:22.972Z,4.40
2023-03-18T20:35:53.088Z,4.50
2023-03-18T20:38:37.720Z,4.50
2023-03-18T20:41:13.093Z,4.50
2023-03-18T20:43:41.840Z,4.50
2023-03-18T20:46:13.562Z,4.40
2023-03-18T20:48:46.913Z,4.40
2023-03-18T20:51:31.138Z,4.40
2023-03-18T20:54:00.865Z,4.20
2023-03-18T20:56:32.936Z,4.10
2023-03-18T20:59:02.034Z,4.00
2023-03-18T21:01:31.276Z,4.10
2023-03-18T21:04:03.109Z,4.20
2023-03-18T21:06:31.639Z,4.10
2023-03-18T21:09:00.102Z,4.10
2023-03-18T21:11:33.459Z,4.30
2023-03-18T21:14:04.979Z,4.50
2023-03-18T21:16:37.213Z,5.00
2023-03-18T21:19:07.792Z,4.90
2023-03-18T21:21:39.068Z,5.00
2023-03-18T21:24:27.478Z,4.90
2023-03-18T21:27:04.876Z,5.10
2023-03-18T21:29:34.731Z,5.10
2023-03-18T21:32:02.877Z,5.10
2023-03-18T21:34:31.416Z,5.30
2023-03-18T21:36:59.181Z,5.20
2023-03-18T21:39:27.624Z,5.00
2023-03-18T21:41:57.663Z,5.20
2023-03-18T21:44:26.200Z,5.10
2023-03-18T21:46:55.657Z,5.30
2023-03-18T21:49:24.499Z,5.20
2023-03-18T21:51:53.515Z,5.20
2023-03-18T21:54:22.858Z,5.10
2023-03-18T21:56:50.811Z,5.10
2023-03-18T21:59:18.978Z,5.10
2023-03-18T22:01:48.263Z,5.10
2023-03-18T22:04:16.384Z,5.10
2023-03-18T22:06:43.973Z,5.00
2023-03-18T22:09:11.966Z,5.10
2023-03-18T22:11:39.698Z,5.10
2023-03-18T22:14:07.604Z,5.10
2023-03-18T22:16:35.518Z,5.00
2023-03-18T22:19:03.159Z,5.00
2023-03-18T22:21:30.798Z,4.90
2023-03-18T22:24:00.626Z,4.90
2023-03-18T22:26:28.231Z,4.90
2023-03-18T22:28:55.952Z,4.70
2023-03-18T22:31:25.821Z,4.60
2023-03-18T22:33:54.596Z,4.60
2023-03-18T22:36:22.649Z,4.40
2023-03-18T22:38:50.243Z,4.40
2023-03-18T22:41:23.871Z,4.30
2023-03-18T22:43:52.049Z,4.10
2023-03-18T22:46:19.885Z,4.00
2023-03-18T22:48:47.772Z,4.00
2023-03-18T22:51:26.703Z,4.20
2023-03-18T22:53:55.129Z,4.20
2023-03-18T22:56:23.331Z,4.20
2023-03-18T22:58:51.392Z,4.30
2023-03-18T23:01:23.168Z,4.30
2023-03-18T23:03:50.993Z,4.20
2023-03-18T23:06:24.377Z,4.00
2023-03-18T23:08:52.001Z,3.80
2023-03-18T23:11:19.622Z,3.90
2023-03-18T23:13:50.878Z,3.60
2023-03-18T23:16:22.330Z,3.60
2023-03-18T23:18:51.204Z,3.50
2023-03-18T23:21:26.357Z,3.30
2023-03-18T23:23:54.214Z,3.40
2023-03-18T23:26:21.871Z,3.50
2023-03-18T23:28:49.679Z,3.50
2023-03-18T23:31:17.489Z,3.40
2023-03-18T23:33:47.772Z,3.30
2023-03-18T23:36:15.888Z,3.40
2023-03-18T23:38:43.624Z,3.40
2023-03-18T23:41:11.662Z,3.50
2023-03-18T23:43:39.416Z,3.40
2023-03-18T23:46:07.989Z,3.40
2023-03-18T23:48:35.946Z,3.40
2023-03-18T23:51:03.583Z,3.40
2023-03-18T23:53:31.398Z,3.30
2023-03-18T23:55:58.969Z,3.20
2023-03-18T23:58:26.540Z,3.20
